KACP

Allen Parish Airport

Oakdale, Louisiana, USA
METAR KACP 151655Z AUTO 00000KT 10SM BKN010 OVC019 11/08 A3010 RMK AO2 T01050079
Observed Flight Rules
Dec-15 @ 16:55 UTC (18 minutes ago) Marginal Visual Flight Rules
Visibility Clouds
10 miles
  • Broken at 1,000' AGL
  • Overcast at 1,900' AGL
Temperatures Readings
Current 11°C / 52°F
Dewpoint 8°C / 46°F
Humidity 82%
Altimeter 30.1" Hg
Pressure 1019 hPa
Elevation 33
METAR KACP 151655Z AUTO 00000KT 10SM BKN010 OVC019 11/08 A3010 RMK AO2 T01050079
Observed Flight Rules
Dec-15 @ 16:55 UTC
(18 minutes ago)
MVFR
Clouds
  • Broken at 1,000' AGL
  • Overcast at 1,900' AGL
Temperature Dewpoint
11°C / 52°F 8°C / 46°F
Humidity Altimeter Pressure
82% 30.1" Hg 1019 hPa